createdAt,value
2019-02-08T00:00:28.765Z,55.83
2019-02-08T00:02:56.943Z,57.40
2019-02-08T00:05:25.153Z,54.47
2019-02-08T00:07:53.407Z,53.87
2019-02-08T00:10:21.656Z,55.27
2019-02-08T00:12:49.846Z,55.10
2019-02-08T00:15:19.758Z,56.00
2019-02-08T00:17:47.928Z,55.17
2019-02-08T00:20:18.214Z,54.33
2019-02-08T00:22:46.486Z,54.90
2019-02-08T00:25:16.296Z,56.03
2019-02-08T00:27:44.487Z,55.83
2019-02-08T00:30:15.977Z,55.67
2019-02-08T00:32:44.158Z,51.33
2019-02-08T00:35:12.343Z,57.53
2019-02-08T00:37:40.537Z,55.30
2019-02-08T00:40:11.558Z,58.53
2019-02-08T00:42:39.746Z,58.47
2019-02-08T00:45:11.590Z,59.47
2019-02-08T00:47:39.774Z,54.50
2019-02-08T00:50:16.898Z,54.57
2019-02-08T00:52:45.086Z,53.27
2019-02-08T00:55:13.269Z,57.67
2019-02-08T00:57:41.457Z,56.77
2019-02-08T01:00:11.686Z,53.50
2019-02-08T01:02:40.215Z,51.67
2019-02-08T01:05:11.038Z,53.97
2019-02-08T01:07:39.254Z,57.67
2019-02-08T01:10:10.701Z,54.77
2019-02-08T01:12:39.059Z,54.10
2019-02-08T01:15:10.593Z,55.80
2019-02-08T01:17:38.979Z,54.50
2019-02-08T01:20:10.375Z,58.10
2019-02-08T01:22:38.570Z,54.00
2019-02-08T01:25:10.197Z,57.40
2019-02-08T01:27:38.388Z,52.07
2019-02-08T01:30:12.469Z,45.90
2019-02-08T01:32:40.666Z,54.10
2019-02-08T01:35:10.585Z,54.93
2019-02-08T01:37:38.776Z,49.50
2019-02-08T01:40:12.773Z,56.80
2019-02-08T01:42:40.969Z,48.83
2019-02-08T01:45:12.263Z,52.43
2019-02-08T01:47:40.454Z,51.57
2019-02-08T01:50:12.043Z,46.30
2019-02-08T01:52:40.239Z,56.13
2019-02-08T01:55:08.426Z,54.33
2019-02-08T01:57:36.651Z,51.97
2019-02-08T02:00:10.982Z,56.10
2019-02-08T02:02:39.202Z,53.73
2019-02-08T02:05:07.686Z,46.07
2019-02-08T02:07:35.846Z,52.27
2019-02-08T02:10:06.736Z,50.53
2019-02-08T02:12:34.923Z,41.03
2019-02-08T02:15:03.110Z,47.13
2019-02-08T02:17:31.319Z,47.03
2019-02-08T02:19:59.482Z,46.73
2019-02-08T02:22:27.669Z,50.07
2019-02-08T02:24:55.862Z,47.47
2019-02-08T02:27:24.050Z,47.33
2019-02-08T02:29:52.239Z,46.77
2019-02-08T02:32:20.435Z,45.80
2019-02-08T02:34:48.631Z,44.33
2019-02-08T02:37:16.819Z,43.03
2019-02-08T02:39:45.007Z,44.80
2019-02-08T02:42:13.189Z,45.60
2019-02-08T02:44:41.372Z,43.63
2019-02-08T02:47:09.552Z,42.67
2019-02-08T02:49:37.737Z,41.60
2019-02-08T02:52:06.590Z,40.83
2019-02-08T02:54:34.779Z,42.10
2019-02-08T02:57:02.961Z,40.57
2019-02-08T02:59:31.153Z,41.27
2019-02-08T03:01:59.372Z,39.23
2019-02-08T03:04:27.541Z,37.13
2019-02-08T03:06:55.722Z,39.63
2019-02-08T03:09:23.911Z,39.13
2019-02-08T03:11:52.098Z,41.37
2019-02-08T03:14:20.287Z,42.03
2019-02-08T03:16:48.480Z,40.80
2019-02-08T03:19:16.666Z,39.93
2019-02-08T03:21:44.852Z,45.03
2019-02-08T03:24:13.263Z,43.47
2019-02-08T03:26:41.408Z,42.03
2019-02-08T03:29:09.597Z,41.03
2019-02-08T03:31:37.836Z,45.77
2019-02-08T03:34:06.048Z,45.37
2019-02-08T03:36:34.225Z,48.10
2019-02-08T03:39:02.484Z,47.90
2019-02-08T03:41:30.668Z,45.93
2019-02-08T03:43:58.850Z,45.83
2019-02-08T03:46:27.048Z,44.10
2019-02-08T03:48:55.236Z,48.27
2019-02-08T03:51:23.429Z,44.80
2019-02-08T03:53:51.610Z,51.03
2019-02-08T03:56:19.790Z,46.07
2019-02-08T03:58:47.975Z,46.67
2019-02-08T04:01:16.181Z,47.53
2019-02-08T04:03:44.365Z,49.60
2019-02-08T04:06:12.563Z,45.73
2019-02-08T04:08:40.754Z,49.10
2019-02-08T04:11:08.993Z,49.67
2019-02-08T04:13:37.127Z,50.77
2019-02-08T04:16:05.338Z,52.20
2019-02-08T04:18:33.521Z,53.27
2019-02-08T04:21:01.737Z,50.60
2019-02-08T04:23:29.917Z,52.67
2019-02-08T04:25:58.127Z,44.53
2019-02-08T04:28:26.312Z,52.97
2019-02-08T04:30:54.546Z,52.13
2019-02-08T04:33:22.736Z,51.73
2019-02-08T04:35:50.921Z,50.73
2019-02-08T04:38:19.131Z,54.07
2019-02-08T04:40:47.386Z,52.77
2019-02-08T04:43:15.591Z,53.47
2019-02-08T04:45:43.782Z,48.03
2019-02-08T04:48:12.007Z,51.50
2019-02-08T04:50:40.191Z,53.73
2019-02-08T04:53:08.381Z,48.70
2019-02-08T04:55:36.571Z,48.97
2019-02-08T04:58:04.784Z,51.97
2019-02-08T05:00:36.537Z,52.73
2019-02-08T05:03:05.659Z,47.73
2019-02-08T05:05:33.852Z,48.37
2019-02-08T05:08:02.034Z,48.47
2019-02-08T05:10:34.347Z,49.13
2019-02-08T05:13:02.495Z,46.00
2019-02-08T05:15:30.687Z,51.83
2019-02-08T05:17:58.952Z,53.17
2019-02-08T05:20:29.741Z,43.20
2019-02-08T05:22:57.931Z,46.00
2019-02-08T05:25:26.126Z,49.50
2019-02-08T05:27:54.311Z,68.75
2019-02-08T05:30:27.200Z,51.73
2019-02-08T05:32:55.390Z,49.07
2019-02-08T05:35:23.565Z,50.10
2019-02-08T05:37:51.753Z,49.17
2019-02-08T05:40:21.573Z,50.37
2019-02-08T05:42:49.761Z,48.97
2019-02-08T05:45:22.864Z,43.40
2019-02-08T05:47:51.054Z,43.40
2019-02-08T05:50:21.936Z,47.57
2019-02-08T05:52:50.151Z,48.37
2019-02-08T05:55:23.414Z,45.77
2019-02-08T05:57:51.627Z,49.13
2019-02-08T06:00:36.133Z,50.60
2019-02-08T06:03:04.755Z,51.83
2019-02-08T06:05:32.934Z,50.50
2019-02-08T06:08:01.166Z,52.30
2019-02-08T06:10:29.316Z,53.87
2019-02-08T06:12:57.500Z,55.47
2019-02-08T06:15:26.058Z,66.70
2019-02-08T06:17:54.261Z,52.60
2019-02-08T06:20:24.078Z,56.50
2019-02-08T06:22:52.351Z,48.57
2019-02-08T06:25:21.577Z,54.33
2019-02-08T06:27:49.896Z,51.73
2019-02-08T06:30:29.454Z,50.47
2019-02-08T06:32:57.662Z,48.20
2019-02-08T06:35:26.487Z,48.67
2019-02-08T06:37:54.691Z,51.53
2019-02-08T06:40:24.735Z,53.33
2019-02-08T06:42:53.006Z,54.47
2019-02-08T06:45:23.123Z,53.97
2019-02-08T06:47:51.313Z,53.43
2019-02-08T06:50:24.391Z,54.80
2019-02-08T06:52:52.650Z,53.50
2019-02-08T06:55:20.922Z,54.70
2019-02-08T06:58:05.787Z,56.40
2019-02-08T07:00:53.899Z,53.17
2019-02-08T07:03:26.832Z,53.63
2019-02-08T07:06:02.075Z,53.93
2019-02-08T07:08:47.996Z,52.30
2019-02-08T07:11:23.941Z,49.27
2019-02-08T07:13:56.954Z,54.57
2019-02-08T07:16:42.969Z,52.63
2019-02-08T07:19:29.062Z,53.47
2019-02-08T07:22:17.321Z,52.93
2019-02-08T07:24:49.871Z,53.67
2019-02-08T07:27:19.688Z,54.33
2019-02-08T07:30:01.365Z,50.73
2019-02-08T07:32:46.108Z,52.30
2019-02-08T07:35:18.825Z,53.37
2019-02-08T07:38:05.032Z,54.87
2019-02-08T07:40:38.408Z,55.03
2019-02-08T07:43:17.020Z,53.87
2019-02-08T07:45:54.080Z,55.40
2019-02-08T07:48:23.905Z,53.90
2019-02-08T07:51:10.256Z,54.47
2019-02-08T07:53:40.088Z,52.90
2019-02-08T07:56:09.901Z,52.13
2019-02-08T07:58:39.765Z,52.60
2019-02-08T08:01:09.610Z,50.53
2019-02-08T08:03:39.472Z,50.43
2019-02-08T08:06:15.293Z,46.00
2019-02-08T08:08:47.836Z,48.57
2019-02-08T08:11:23.342Z,51.73
2019-02-08T08:13:53.173Z,52.37
2019-02-08T08:16:37.993Z,49.93
2019-02-08T08:19:10.263Z,50.63
2019-02-08T08:21:40.101Z,51.50
2019-02-08T08:24:09.939Z,49.57
2019-02-08T08:26:43.086Z,49.70
2019-02-08T08:29:27.634Z,47.90
2019-02-08T08:31:57.614Z,47.83
2019-02-08T08:34:34.932Z,49.40
2019-02-08T08:37:28.990Z,48.60
2019-02-08T08:40:15.757Z,47.80
2019-02-08T08:42:49.746Z,47.47
2019-02-08T08:45:37.789Z,48.40
2019-02-08T08:48:30.544Z,46.77
2019-02-08T08:51:04.679Z,47.83
2019-02-08T08:54:09.289Z,46.00
2019-02-08T08:56:46.433Z,49.20
2019-02-08T08:59:23.856Z,47.17
2019-02-08T09:02:11.649Z,50.67
2019-02-08T09:04:45.850Z,49.47
2019-02-08T09:07:35.572Z,46.30
2019-02-08T09:10:42.676Z,45.27
2019-02-08T09:13:33.475Z,45.70
2019-02-08T09:16:33.740Z,45.47
2019-02-08T09:19:07.687Z,44.27
2019-02-08T09:21:47.892Z,43.80
2019-02-08T09:24:43.368Z,44.53
2019-02-08T09:27:37.739Z,44.20
2019-02-08T09:30:29.963Z,45.57
2019-02-08T09:33:13.094Z,46.60
2019-02-08T09:36:10.057Z,44.43
2019-02-08T09:38:56.532Z,46.23
2019-02-08T09:41:30.867Z,47.00
2019-02-08T09:44:17.512Z,46.40
2019-02-08T09:47:09.729Z,45.70
2019-02-08T09:49:58.914Z,45.67
2019-02-08T09:52:56.067Z,45.80
2019-02-08T09:55:57.774Z,45.97
2019-02-08T09:58:41.248Z,44.87
2019-02-08T10:01:29.186Z,46.70
2019-02-08T10:04:16.740Z,44.57
2019-02-08T10:06:57.332Z,45.77
2019-02-08T10:09:40.924Z,47.53
2019-02-08T10:12:23.674Z,47.33
2019-02-08T10:15:00.916Z,48.37
2019-02-08T10:17:38.101Z,48.30
2019-02-08T10:20:42.996Z,47.43
2019-02-08T10:23:20.672Z,45.53
2019-02-08T10:26:08.865Z,46.00
2019-02-08T10:28:52.462Z,45.70
2019-02-08T10:31:26.791Z,43.50
2019-02-08T10:34:26.917Z,45.90
2019-02-08T10:37:26.701Z,43.77
2019-02-08T10:40:31.097Z,43.97
2019-02-08T10:43:23.588Z,43.73
2019-02-08T10:46:07.078Z,42.53
2019-02-08T10:49:02.279Z,43.80
2019-02-08T10:51:42.851Z,42.63
2019-02-08T10:54:33.837Z,40.77
2019-02-08T10:57:13.455Z,42.60
2019-02-08T11:00:02.858Z,41.70
2019-02-08T11:03:07.628Z,41.87
2019-02-08T11:06:12.244Z,43.27
2019-02-08T11:09:16.657Z,41.77
2019-02-08T11:12:13.728Z,42.47
2019-02-08T11:15:18.340Z,41.43
2019-02-08T11:18:06.418Z,40.53
2019-02-08T11:20:34.614Z,39.80
2019-02-08T11:23:02.818Z,41.67
2019-02-08T11:25:30.996Z,40.43
2019-02-08T11:27:59.242Z,42.37
2019-02-08T11:30:27.429Z,42.60
2019-02-08T11:32:55.630Z,42.40
2019-02-08T11:35:23.815Z,41.37
2019-02-08T11:37:52.018Z,44.17
2019-02-08T11:40:23.204Z,42.87
2019-02-08T11:42:51.409Z,42.83
2019-02-08T11:45:19.684Z,42.50
2019-02-08T11:47:47.864Z,44.23
2019-02-08T11:50:21.299Z,42.77
2019-02-08T11:52:49.545Z,45.00
2019-02-08T11:55:17.768Z,43.27
2019-02-08T11:57:45.943Z,44.00
2019-02-08T12:00:17.745Z,43.10
2019-02-08T12:02:45.945Z,42.90
2019-02-08T12:05:14.122Z,40.80
2019-02-08T12:07:42.305Z,41.50
2019-02-08T12:10:10.529Z,41.50
2019-02-08T12:12:38.680Z,42.17
2019-02-08T12:15:10.125Z,42.40
2019-02-08T12:17:38.299Z,43.53
2019-02-08T12:20:09.905Z,43.97
2019-02-08T12:22:38.106Z,40.07
2019-02-08T12:25:12.010Z,39.57
2019-02-08T12:27:40.184Z,40.80
2019-02-08T12:30:28.483Z,41.10
2019-02-08T12:32:56.655Z,42.10
2019-02-08T12:35:24.843Z,42.80
2019-02-08T12:37:53.056Z,43.20
2019-02-08T12:40:21.220Z,43.03
2019-02-08T12:42:49.430Z,41.57
2019-02-08T12:45:19.565Z,40.00
2019-02-08T12:47:47.795Z,39.30
2019-02-08T12:50:17.403Z,41.40
2019-02-08T12:52:45.634Z,40.90
2019-02-08T12:55:16.195Z,39.73
2019-02-08T12:57:44.366Z,40.23
2019-02-08T13:00:18.437Z,39.90
2019-02-08T13:02:46.613Z,37.83
2019-02-08T13:05:16.049Z,37.00
2019-02-08T13:07:44.235Z,36.40
2019-02-08T13:10:15.674Z,36.53
2019-02-08T13:12:43.855Z,39.50
2019-02-08T13:15:14.486Z,37.47
2019-02-08T13:17:42.718Z,35.73
2019-02-08T13:20:16.833Z,36.00
2019-02-08T13:22:45.012Z,33.67
2019-02-08T13:25:13.432Z,35.30
2019-02-08T13:27:41.608Z,40.23
2019-02-08T13:30:15.812Z,41.03
2019-02-08T13:32:43.992Z,42.23
2019-02-08T13:35:12.175Z,42.80
2019-02-08T13:37:40.352Z,42.73
2019-02-08T13:40:14.371Z,42.37
2019-02-08T13:42:42.553Z,40.57
2019-02-08T13:45:12.467Z,40.67
2019-02-08T13:47:40.689Z,40.70
2019-02-08T13:50:23.551Z,40.60
2019-02-08T13:52:51.743Z,40.10
2019-02-08T13:55:21.880Z,38.40
2019-02-08T13:57:50.055Z,37.83
2019-02-08T14:00:35.769Z,36.83
2019-02-08T14:03:04.498Z,35.87
2019-02-08T14:05:32.706Z,37.60
2019-02-08T14:08:00.893Z,37.07
2019-02-08T14:10:29.088Z,35.77
2019-02-08T14:12:57.265Z,34.97
2019-02-08T14:15:34.013Z,36.90
2019-02-08T14:18:02.201Z,36.20
2019-02-08T14:20:30.497Z,34.43
2019-02-08T14:22:59.182Z,34.67
2019-02-08T14:25:27.392Z,32.73
2019-02-08T14:27:55.585Z,32.57
2019-02-08T14:30:35.364Z,32.23
2019-02-08T14:33:04.528Z,31.90
2019-02-08T14:35:32.851Z,31.17
2019-02-08T14:38:02.366Z,29.33
2019-02-08T14:40:30.883Z,29.63
2019-02-08T14:42:59.164Z,30.93
2019-02-08T14:45:28.343Z,32.40
2019-02-08T14:47:56.527Z,31.87
2019-02-08T14:50:26.507Z,31.70
2019-02-08T14:52:54.857Z,32.07
2019-02-08T14:55:23.028Z,32.30
2019-02-08T14:57:52.145Z,33.77
2019-02-08T15:00:21.961Z,33.77
2019-02-08T15:02:50.166Z,33.33
2019-02-08T15:05:19.584Z,36.23
2019-02-08T15:07:47.849Z,35.20
2019-02-08T15:10:19.288Z,36.13
2019-02-08T15:12:47.463Z,37.17
2019-02-08T15:15:15.662Z,37.47
2019-02-08T15:17:43.847Z,37.30
2019-02-08T15:20:24.100Z,38.10
2019-02-08T15:22:52.275Z,39.30
2019-02-08T15:25:20.457Z,39.77
2019-02-08T15:27:48.652Z,40.63
2019-02-08T15:30:22.332Z,40.73
2019-02-08T15:32:50.512Z,40.43
2019-02-08T15:35:24.383Z,40.93
2019-02-08T15:37:52.581Z,45.13
2019-02-08T15:40:37.902Z,41.43
2019-02-08T15:43:07.043Z,41.23
2019-02-08T15:45:35.483Z,41.10
2019-02-08T15:48:03.721Z,43.10
2019-02-08T15:50:31.929Z,45.37
2019-02-08T15:53:00.106Z,43.63
2019-02-08T15:55:30.820Z,41.17
2019-02-08T15:57:59.071Z,40.53
2019-02-08T16:00:29.738Z,41.73
2019-02-08T16:02:58.105Z,39.97
2019-02-08T16:05:26.552Z,40.60
2019-02-08T16:07:54.727Z,41.13
2019-02-08T16:10:22.906Z,38.50
2019-02-08T16:12:51.123Z,38.43
2019-02-08T16:15:29.384Z,44.70
2019-02-08T16:17:58.552Z,41.77
2019-02-08T16:20:29.097Z,37.73
2019-02-08T16:22:58.720Z,37.53
2019-02-08T16:25:28.638Z,38.73
2019-02-08T16:27:56.814Z,37.53
2019-02-08T16:30:30.642Z,37.50
2019-02-08T16:32:58.980Z,37.73
2019-02-08T16:35:27.380Z,38.87
2019-02-08T16:37:55.528Z,39.17
2019-02-08T16:40:30.056Z,37.77
2019-02-08T16:42:58.303Z,36.70
2019-02-08T16:45:29.183Z,38.83
2019-02-08T16:47:57.456Z,40.17
2019-02-08T16:50:30.189Z,43.20
2019-02-08T16:52:58.376Z,40.27
2019-02-08T16:55:26.580Z,38.07
2019-02-08T16:57:54.759Z,40.53
2019-02-08T17:00:31.306Z,43.83
2019-02-08T17:03:01.152Z,42.17
2019-02-08T17:05:29.984Z,41.07
2019-02-08T17:07:58.162Z,44.63
2019-02-08T17:10:26.345Z,44.27
2019-02-08T17:12:54.544Z,40.87
2019-02-08T17:15:32.739Z,42.97
2019-02-08T17:18:00.950Z,41.17
2019-02-08T17:20:40.939Z,43.80
2019-02-08T17:23:09.118Z,42.07
2019-02-08T17:25:37.346Z,45.40
2019-02-08T17:28:06.049Z,44.63
2019-02-08T17:30:34.255Z,45.93
2019-02-08T17:33:02.437Z,44.17
2019-02-08T17:35:30.616Z,45.57
2019-02-08T17:37:58.868Z,44.87
2019-02-08T17:40:29.749Z,61.33
2019-02-08T17:42:57.934Z,51.70
2019-02-08T17:45:26.109Z,46.90
2019-02-08T17:47:54.529Z,46.40
2019-02-08T17:50:25.109Z,43.80
2019-02-08T17:52:53.296Z,48.20
2019-02-08T17:55:30.563Z,47.40
2019-02-08T17:58:03.546Z,46.10
2019-02-08T18:00:48.255Z,46.27
2019-02-08T18:03:16.430Z,46.80
2019-02-08T18:05:44.604Z,49.43
2019-02-08T18:08:12.812Z,51.17
2019-02-08T18:10:40.991Z,56.17
2019-02-08T18:13:09.169Z,58.37
2019-02-08T18:15:37.355Z,52.77
2019-02-08T18:18:08.200Z,51.70
2019-02-08T18:20:39.475Z,55.60
2019-02-08T18:23:07.659Z,56.90
2019-02-08T18:25:35.866Z,62.43
2019-02-08T18:28:10.812Z,59.13
2019-02-08T18:30:34.121Z,53.13
2019-02-08T18:33:02.383Z,58.03
2019-02-08T18:35:30.669Z,58.87
2019-02-08T18:37:59.042Z,50.87
2019-02-08T18:40:27.245Z,51.20
2019-02-08T18:42:55.455Z,55.43
2019-02-08T18:45:26.335Z,54.97
2019-02-08T18:47:54.519Z,53.60
2019-02-08T18:50:24.961Z,54.93
2019-02-08T18:52:53.157Z,55.57
2019-02-08T18:55:21.345Z,55.13
2019-02-08T18:57:49.543Z,50.13
2019-02-08T19:00:29.302Z,53.90
2019-02-08T19:02:57.745Z,55.63
2019-02-08T19:05:25.965Z,57.67
2019-02-08T19:07:54.152Z,53.53
2019-02-08T19:10:23.189Z,54.50
2019-02-08T19:12:51.364Z,54.43
2019-02-08T19:15:21.484Z,55.23
2019-02-08T19:17:49.662Z,54.80
2019-02-08T19:20:22.555Z,63.93
2019-02-08T19:22:50.753Z,58.37
2019-02-08T19:25:21.841Z,60.87
2019-02-08T19:27:50.092Z,60.07
2019-02-08T19:30:20.610Z,57.93
2019-02-08T19:32:48.796Z,56.27
2019-02-08T19:35:17.145Z,55.37
2019-02-08T19:37:45.334Z,52.97
2019-02-08T19:40:19.118Z,69.97
2019-02-08T19:42:47.341Z,51.10
2019-02-08T19:45:17.570Z,52.57
2019-02-08T19:47:45.797Z,51.20
2019-02-08T19:50:28.897Z,51.70
2019-02-08T19:52:57.078Z,51.97
2019-02-08T19:55:25.267Z,50.43
2019-02-08T19:57:53.551Z,47.87
2019-02-08T20:00:29.901Z,61.37
2019-02-08T20:02:58.158Z,48.23
2019-02-08T20:05:26.317Z,46.27
2019-02-08T20:07:55.656Z,45.40
2019-02-08T20:10:26.662Z,55.50
2019-02-08T20:12:54.874Z,45.30
2019-02-08T20:15:23.075Z,46.37
2019-02-08T20:17:51.263Z,45.30
2019-02-08T20:20:19.472Z,46.47
2019-02-08T20:22:47.668Z,43.90
2019-02-08T20:25:21.088Z,45.27
2019-02-08T20:27:49.272Z,44.43
2019-02-08T20:30:19.880Z,44.47
2019-02-08T20:32:48.141Z,44.97
2019-02-08T20:35:20.521Z,45.70
2019-02-08T20:37:49.069Z,56.27
2019-02-08T20:40:25.846Z,51.27
2019-02-08T20:42:54.063Z,47.00
2019-02-08T20:45:24.196Z,48.07
2019-02-08T20:47:53.324Z,48.03
2019-02-08T20:50:22.146Z,47.57
2019-02-08T20:52:50.409Z,47.90
2019-02-08T20:55:19.235Z,44.83
2019-02-08T20:57:48.360Z,45.00
2019-02-08T21:00:26.849Z,45.27
2019-02-08T21:02:55.589Z,44.47
2019-02-08T21:05:24.666Z,49.30
2019-02-08T21:07:53.797Z,44.17
2019-02-08T21:10:21.979Z,42.60
2019-02-08T21:12:53.200Z,42.73
2019-02-08T21:15:23.720Z,42.30
2019-02-08T21:17:51.905Z,44.03
2019-02-08T21:20:21.082Z,44.23
2019-02-08T21:22:53.614Z,44.97
2019-02-08T21:25:30.617Z,45.97
2019-02-08T21:27:58.810Z,45.67
2019-02-08T21:30:26.995Z,47.13
2019-02-08T21:32:55.177Z,47.03
2019-02-08T21:35:23.439Z,46.20
2019-02-08T21:37:51.605Z,49.30
2019-02-08T21:40:30.295Z,48.03
2019-02-08T21:42:59.502Z,47.70
2019-02-08T21:45:33.162Z,48.50
2019-02-08T21:48:01.346Z,47.73
2019-02-08T21:50:29.681Z,49.40
2019-02-08T21:52:58.355Z,48.50
2019-02-08T21:55:28.673Z,47.33
2019-02-08T21:57:59.076Z,48.23
2019-02-08T22:00:29.109Z,48.70
2019-02-08T22:02:58.796Z,50.23
2019-02-08T22:05:32.704Z,49.73
2019-02-08T22:08:00.894Z,50.13
2019-02-08T22:10:30.016Z,50.17
2019-02-08T22:12:58.208Z,49.13
2019-02-08T22:15:29.299Z,50.80
2019-02-08T22:17:57.497Z,50.20
2019-02-08T22:20:25.702Z,49.80
2019-02-08T22:22:54.876Z,51.47
2019-02-08T22:25:27.662Z,50.57
2019-02-08T22:27:56.873Z,51.23
2019-02-08T22:30:28.475Z,49.67
2019-02-08T22:33:01.678Z,49.67
2019-02-08T22:35:29.844Z,51.17
2019-02-08T22:37:58.039Z,49.67
2019-02-08T22:40:26.597Z,49.57
2019-02-08T22:42:55.757Z,48.17
2019-02-08T22:45:34.591Z,47.63
2019-02-08T22:48:03.874Z,48.50
2019-02-08T22:50:32.055Z,47.70
2019-02-08T22:53:01.260Z,45.70
2019-02-08T22:55:33.987Z,48.23
2019-02-08T22:58:02.173Z,47.77
2019-02-08T23:00:38.406Z,47.17
2019-02-08T23:03:09.097Z,47.93
2019-02-08T23:05:45.019Z,49.20
2019-02-08T23:08:09.780Z,47.97
2019-02-08T23:10:39.602Z,47.97
2019-02-08T23:13:16.739Z,47.90
2019-02-08T23:15:44.959Z,46.77
2019-02-08T23:18:13.170Z,48.13
2019-02-08T23:20:44.425Z,48.20
2019-02-08T23:23:12.611Z,46.83
2019-02-08T23:25:41.699Z,47.00
2019-02-08T23:28:09.887Z,44.93
2019-02-08T23:30:38.082Z,44.83
2019-02-08T23:33:06.292Z,44.27
2019-02-08T23:35:34.461Z,44.13
2019-02-08T23:38:02.647Z,42.83
2019-02-08T23:40:30.819Z,44.67
2019-02-08T23:42:59.014Z,42.30
2019-02-08T23:45:27.198Z,41.73
2019-02-08T23:47:55.388Z,42.30
2019-02-08T23:50:24.530Z,43.03
2019-02-08T23:52:52.707Z,41.67
2019-02-08T23:55:23.015Z,41.93
2019-02-08T23:57:51.247Z,41.10
